createdAt,value
2023-04-26T00:02:08.298Z,53.02
2023-04-26T00:04:40.305Z,52.57
2023-04-26T00:07:13.932Z,52.73
2023-04-26T00:09:45.778Z,52.79
2023-04-26T00:12:17.479Z,52.41
2023-04-26T00:14:49.397Z,52.46
2023-04-26T00:17:21.154Z,52.42
2023-04-26T00:19:52.980Z,52.45
2023-04-26T00:22:25.607Z,52.09
2023-04-26T00:24:57.362Z,51.82
2023-04-26T00:27:29.033Z,51.83
2023-04-26T00:30:00.992Z,52.06
2023-04-26T00:32:35.408Z,52.03
2023-04-26T00:35:07.929Z,51.99
2023-04-26T00:37:39.611Z,52.16
2023-04-26T00:40:12.308Z,52.16
2023-04-26T00:42:46.764Z,52.03
2023-04-26T00:45:18.461Z,52.19
2023-04-26T00:47:51.011Z,52.78
2023-04-26T00:50:22.941Z,52.91
2023-04-26T00:52:57.273Z,53.22
2023-04-26T00:55:29.134Z,53.18
2023-04-26T00:58:01.215Z,53.92
2023-04-26T01:00:33.115Z,53.81
2023-04-26T01:03:04.926Z,54.16
2023-04-26T01:05:38.137Z,54.53
2023-04-26T01:08:10.359Z,54.90
2023-04-26T01:10:42.027Z,55.20
2023-04-26T01:13:14.992Z,55.24
2023-04-26T01:15:47.389Z,55.29
2023-04-26T01:18:19.032Z,55.77
2023-04-26T01:20:52.972Z,55.63
2023-04-26T01:23:24.716Z,55.92
2023-04-26T01:25:56.688Z,56.38
2023-04-26T01:28:28.495Z,56.04
2023-04-26T01:31:01.496Z,56.28
2023-04-26T01:33:36.005Z,56.71
2023-04-26T01:36:10.965Z,57.15
2023-04-26T01:38:42.680Z,56.85
2023-04-26T01:41:14.430Z,57.03
2023-04-26T01:43:46.105Z,57.16
2023-04-26T01:46:17.840Z,57.02
2023-04-26T01:48:49.572Z,56.95
2023-04-26T01:51:21.836Z,56.67
2023-04-26T01:53:53.748Z,56.38
2023-04-26T01:56:25.904Z,56.03
2023-04-26T01:58:59.224Z,56.21
2023-04-26T02:01:31.490Z,56.05
2023-04-26T02:04:03.294Z,55.94
2023-04-26T02:06:35.495Z,55.78
2023-04-26T02:09:09.402Z,55.84
2023-04-26T02:11:45.268Z,56.11
2023-04-26T02:14:17.165Z,55.85
2023-04-26T02:16:49.298Z,56.22
2023-04-26T02:19:21.135Z,56.17
2023-04-26T02:21:55.217Z,56.54
2023-04-26T02:24:27.439Z,56.09
2023-04-26T02:27:04.125Z,56.33
2023-04-26T02:29:44.529Z,56.28
2023-04-26T02:32:16.868Z,56.61
2023-04-26T02:34:48.600Z,56.42
2023-04-26T02:37:22.186Z,56.45
2023-04-26T02:39:53.946Z,56.90
2023-04-26T02:42:26.261Z,56.77
2023-04-26T02:44:58.035Z,57.17
2023-04-26T02:47:29.893Z,56.91
2023-04-26T02:50:01.592Z,56.81
2023-04-26T02:52:36.757Z,56.84
2023-04-26T02:55:09.799Z,56.53
2023-04-26T02:57:42.137Z,56.52
2023-04-26T03:00:17.827Z,56.65
2023-04-26T03:02:49.725Z,56.65
2023-04-26T03:05:23.273Z,56.94
2023-04-26T03:07:55.083Z,56.75
2023-04-26T03:10:26.820Z,56.79
2023-04-26T03:12:58.596Z,56.94
2023-04-26T03:15:30.988Z,56.88
2023-04-26T03:18:05.842Z,57.01
2023-04-26T03:20:37.685Z,57.27
2023-04-26T03:23:10.621Z,57.14
2023-04-26T03:25:42.453Z,56.83
2023-04-26T03:28:14.351Z,57.37
2023-04-26T03:30:46.706Z,57.25
2023-04-26T03:33:20.548Z,57.06
2023-04-26T03:35:52.310Z,57.16
2023-04-26T03:38:24.965Z,57.10
2023-04-26T03:40:57.087Z,57.19
2023-04-26T03:43:32.552Z,57.58
2023-04-26T03:46:05.825Z,57.33
2023-04-26T03:48:38.501Z,57.20
2023-04-26T03:51:10.323Z,57.54
2023-04-26T03:53:43.189Z,57.29
2023-04-26T03:56:14.938Z,57.41
2023-04-26T03:58:46.838Z,57.06
2023-04-26T04:01:21.011Z,57.19
2023-04-26T04:03:53.000Z,57.41
2023-04-26T04:06:25.364Z,57.27
2023-04-26T04:08:58.540Z,57.62
2023-04-26T04:11:30.848Z,57.69
2023-04-26T04:14:03.050Z,57.52
2023-04-26T04:16:34.767Z,58.49
2023-04-26T04:19:06.583Z,58.04
2023-04-26T04:21:38.863Z,58.05
2023-04-26T04:24:11.484Z,58.07
2023-04-26T04:26:43.625Z,57.69
2023-04-26T04:29:15.943Z,57.95
2023-04-26T04:31:48.863Z,58.00
2023-04-26T04:34:23.890Z,58.15
2023-04-26T04:36:55.764Z,57.86
2023-04-26T04:39:28.933Z,58.02
2023-04-26T04:42:01.245Z,58.51
2023-04-26T04:44:33.902Z,58.31
2023-04-26T04:47:06.172Z,58.40
2023-04-26T04:49:39.859Z,58.23
2023-04-26T04:52:11.572Z,58.55
2023-04-26T04:54:43.341Z,58.51
2023-04-26T04:57:16.666Z,57.89
2023-04-26T04:59:49.742Z,57.42
2023-04-26T05:02:21.805Z,57.42
2023-04-26T05:04:53.926Z,57.93
2023-04-26T05:07:27.943Z,57.83
2023-04-26T05:10:01.356Z,57.36
2023-04-26T05:12:33.686Z,56.93
2023-04-26T05:15:06.703Z,56.58
2023-04-26T05:17:38.791Z,56.31
2023-04-26T05:20:18.487Z,55.48
2023-04-26T05:22:50.308Z,55.83
2023-04-26T05:25:22.967Z,55.50
2023-04-26T05:28:00.474Z,53.62
2023-04-26T05:30:46.631Z,53.69
2023-04-26T05:33:26.616Z,52.22
2023-04-26T05:36:22.199Z,52.12
2023-04-26T05:38:53.847Z,51.27
2023-04-26T05:41:25.800Z,51.82
2023-04-26T05:43:58.185Z,50.97
2023-04-26T05:46:32.158Z,50.23
2023-04-26T05:49:03.877Z,49.75
2023-04-26T05:51:35.711Z,49.92
2023-04-26T05:54:07.554Z,48.78
2023-04-26T05:56:39.410Z,48.35
2023-04-26T05:59:12.272Z,47.67
2023-04-26T06:01:44.260Z,47.81
2023-04-26T06:04:16.637Z,47.52
2023-04-26T06:07:07.355Z,47.51
2023-04-26T06:09:39.149Z,46.80
2023-04-26T06:12:11.171Z,46.30
2023-04-26T06:14:46.105Z,46.50
2023-04-26T06:17:22.194Z,46.00
2023-04-26T06:19:53.967Z,45.68
2023-04-26T06:22:25.753Z,45.40
2023-04-26T06:24:57.502Z,46.02
2023-04-26T06:27:29.234Z,46.64
2023-04-26T06:30:00.986Z,46.11
2023-04-26T06:32:33.196Z,46.55
2023-04-26T06:35:05.804Z,47.14
2023-04-26T06:37:38.698Z,46.43
2023-04-26T06:40:14.027Z,46.51
2023-04-26T06:42:46.478Z,46.77
2023-04-26T06:45:37.005Z,47.84
2023-04-26T06:48:08.784Z,47.44
2023-04-26T06:50:40.565Z,47.32
2023-04-26T06:53:12.287Z,47.11
2023-04-26T06:55:44.473Z,46.44
2023-04-26T06:58:16.213Z,44.97
2023-04-26T07:00:47.983Z,44.59
2023-04-26T07:03:20.315Z,44.46
2023-04-26T07:05:52.214Z,45.16
2023-04-26T07:08:23.922Z,45.71
2023-04-26T07:10:55.601Z,45.33
2023-04-26T07:13:27.391Z,45.53
2023-04-26T07:15:59.824Z,45.61
2023-04-26T07:18:31.850Z,45.39
2023-04-26T07:21:03.631Z,45.18
2023-04-26T07:23:35.985Z,43.66
2023-04-26T07:26:07.864Z,43.54
2023-04-26T07:28:39.558Z,43.23
2023-04-26T07:31:11.309Z,43.54
2023-04-26T07:33:43.637Z,43.25
2023-04-26T07:36:15.429Z,43.79
2023-04-26T07:38:48.220Z,43.97
2023-04-26T07:41:19.918Z,44.29
2023-04-26T07:43:52.058Z,44.42
2023-04-26T07:46:25.145Z,44.49
2023-04-26T07:48:56.870Z,44.90
2023-04-26T07:51:28.631Z,45.29
2023-04-26T07:54:03.064Z,45.49
2023-04-26T07:56:34.788Z,45.47
2023-04-26T07:59:06.620Z,45.79
2023-04-26T08:01:38.972Z,44.57
2023-04-26T08:04:11.058Z,44.55
2023-04-26T08:06:45.117Z,43.82
2023-04-26T08:09:17.610Z,42.99
2023-04-26T08:11:49.415Z,42.87
2023-04-26T08:14:21.444Z,42.90
2023-04-26T08:16:53.706Z,43.92
2023-04-26T08:19:26.807Z,44.32
2023-04-26T08:21:58.985Z,44.42
2023-04-26T08:24:30.718Z,44.82
2023-04-26T08:27:02.408Z,44.53
2023-04-26T08:29:34.249Z,43.80
2023-04-26T08:32:06.065Z,43.85
2023-04-26T08:34:37.888Z,44.25
2023-04-26T08:37:10.545Z,43.89
2023-04-26T08:39:42.281Z,43.60
2023-04-26T08:42:16.897Z,44.31
2023-04-26T08:44:49.201Z,44.24
2023-04-26T08:47:24.862Z,43.04
2023-04-26T08:50:03.707Z,43.17
2023-04-26T08:52:37.045Z,43.94
2023-04-26T08:55:10.817Z,43.41
2023-04-26T08:57:50.495Z,43.18
2023-04-26T09:00:23.153Z,43.56
2023-04-26T09:02:55.077Z,44.03
2023-04-26T09:05:27.324Z,43.57
2023-04-26T09:08:05.268Z,44.01
2023-04-26T09:10:36.993Z,45.00
2023-04-26T09:13:08.736Z,45.10
2023-04-26T09:15:41.381Z,44.98
2023-04-26T09:18:23.797Z,46.33
2023-04-26T09:21:07.170Z,45.96
2023-04-26T09:23:58.102Z,45.78
2023-04-26T09:26:30.746Z,45.60
2023-04-26T09:29:17.390Z,45.24
2023-04-26T09:31:50.778Z,44.31
2023-04-26T09:34:22.462Z,43.76
2023-04-26T09:36:58.543Z,42.13
2023-04-26T09:39:33.796Z,41.23
2023-04-26T09:42:06.384Z,39.63
2023-04-26T09:44:38.357Z,40.08
2023-04-26T09:47:19.697Z,40.55
2023-04-26T09:49:52.512Z,41.46
2023-04-26T09:52:24.289Z,41.17
2023-04-26T09:54:56.106Z,40.91
2023-04-26T09:57:27.948Z,40.08
2023-04-26T10:00:00.965Z,40.18
2023-04-26T10:02:33.246Z,39.88
2023-04-26T10:05:07.335Z,40.15
2023-04-26T10:07:41.367Z,39.44
2023-04-26T10:10:13.403Z,39.84
2023-04-26T10:12:45.906Z,38.67
2023-04-26T10:15:18.688Z,38.48
2023-04-26T10:17:52.150Z,37.20
2023-04-26T10:20:28.309Z,37.13
2023-04-26T10:23:02.087Z,37.05
2023-04-26T10:25:38.891Z,38.05
2023-04-26T10:28:10.680Z,37.17
2023-04-26T10:30:56.546Z,38.09
2023-04-26T10:33:28.318Z,37.39
2023-04-26T10:36:01.366Z,37.73
2023-04-26T10:38:33.808Z,38.38
2023-04-26T10:41:31.605Z,37.37
2023-04-26T10:44:42.277Z,37.74
2023-04-26T10:47:34.448Z,37.35
2023-04-26T10:50:11.340Z,36.35
2023-04-26T10:53:04.242Z,35.73
2023-04-26T10:55:41.700Z,35.62
2023-04-26T10:58:33.586Z,35.99
2023-04-26T11:01:16.402Z,36.40
2023-04-26T11:03:58.061Z,35.59
2023-04-26T11:06:50.940Z,35.44
2023-04-26T11:09:39.739Z,34.97
2023-04-26T11:12:13.416Z,34.71
2023-04-26T11:14:48.886Z,34.40
2023-04-26T11:17:20.890Z,33.49
2023-04-26T11:19:52.679Z,33.15
2023-04-26T11:22:24.569Z,32.15
2023-04-26T11:24:56.281Z,32.55
2023-04-26T11:27:28.329Z,33.25
2023-04-26T11:30:04.428Z,34.26
2023-04-26T11:32:36.152Z,34.88
2023-04-26T11:35:08.183Z,33.93
2023-04-26T11:37:39.992Z,34.05
2023-04-26T11:40:11.966Z,33.76
2023-04-26T11:42:45.165Z,33.85
2023-04-26T11:45:16.900Z,32.98
2023-04-26T11:47:49.236Z,32.77
2023-04-26T11:50:24.001Z,31.90
2023-04-26T11:52:56.601Z,31.72
2023-04-26T11:55:33.270Z,32.03
2023-04-26T11:58:13.789Z,32.18
2023-04-26T12:00:58.535Z,32.83
2023-04-26T12:03:37.935Z,32.90
2023-04-26T12:06:09.914Z,33.33
2023-04-26T12:08:41.717Z,33.08
2023-04-26T12:11:16.602Z,32.49
2023-04-26T12:13:48.407Z,32.73
2023-04-26T12:16:26.652Z,32.87
2023-04-26T12:18:58.942Z,33.19
2023-04-26T12:21:40.045Z,33.38
2023-04-26T12:24:25.477Z,33.81
2023-04-26T12:26:57.365Z,33.04
2023-04-26T12:29:30.900Z,33.65
2023-04-26T12:32:04.119Z,33.18
2023-04-26T12:34:36.502Z,33.89
2023-04-26T12:37:10.800Z,34.60
2023-04-26T12:39:43.939Z,34.12
2023-04-26T12:42:15.907Z,33.61
2023-04-26T12:44:47.757Z,33.39
2023-04-26T12:47:19.638Z,33.35
2023-04-26T12:49:52.469Z,33.16
2023-04-26T12:52:24.389Z,33.26
2023-04-26T12:54:56.695Z,32.85
2023-04-26T12:57:28.547Z,32.97
2023-04-26T13:00:00.332Z,32.95
2023-04-26T13:02:33.961Z,32.78
2023-04-26T13:05:07.804Z,32.32
2023-04-26T13:07:42.325Z,33.21
2023-04-26T13:10:14.264Z,32.13
2023-04-26T13:12:46.304Z,33.03
2023-04-26T13:15:18.122Z,33.23
2023-04-26T13:17:50.034Z,32.57
2023-04-26T13:20:23.728Z,32.15
2023-04-26T13:22:57.448Z,32.06
2023-04-26T13:25:29.222Z,31.54
2023-04-26T13:28:01.189Z,31.45
2023-04-26T13:30:33.096Z,30.37
2023-04-26T13:33:05.911Z,31.94
2023-04-26T13:35:38.981Z,31.77
2023-04-26T13:38:11.963Z,31.86
2023-04-26T13:40:45.171Z,32.37
2023-04-26T13:43:16.957Z,32.57
2023-04-26T13:45:51.789Z,32.76
2023-04-26T13:48:23.584Z,33.98
2023-04-26T13:50:59.008Z,34.20
2023-04-26T13:53:30.698Z,33.82
2023-04-26T13:56:02.516Z,33.81
2023-04-26T13:58:34.288Z,34.14
2023-04-26T14:01:06.144Z,33.70
2023-04-26T14:03:41.800Z,33.74
2023-04-26T14:06:16.952Z,33.22
2023-04-26T14:08:49.132Z,32.82
2023-04-26T14:11:22.947Z,33.23
2023-04-26T14:13:57.655Z,33.36
2023-04-26T14:16:29.313Z,32.75
2023-04-26T14:19:02.354Z,32.55
2023-04-26T14:21:34.312Z,33.02
2023-04-26T14:24:11.884Z,33.15
2023-04-26T14:26:43.809Z,32.07
2023-04-26T14:29:15.740Z,32.90
2023-04-26T14:31:47.582Z,33.21
2023-04-26T14:34:19.262Z,32.95
2023-04-26T14:36:51.258Z,33.25
2023-04-26T14:39:24.608Z,33.18
2023-04-26T14:41:57.279Z,32.70
2023-04-26T14:44:29.341Z,32.92
2023-04-26T14:47:01.413Z,33.15
2023-04-26T14:49:33.132Z,32.05
2023-04-26T14:52:09.165Z,32.00
2023-04-26T14:54:43.924Z,32.95
2023-04-26T14:57:15.799Z,32.76
2023-04-26T14:59:48.175Z,32.13
2023-04-26T15:02:20.148Z,32.31
2023-04-26T15:04:52.058Z,32.37
2023-04-26T15:07:32.153Z,32.49
2023-04-26T15:10:08.301Z,31.82
2023-04-26T15:12:40.128Z,32.04
2023-04-26T15:15:12.069Z,31.42
2023-04-26T15:17:46.114Z,31.90
2023-04-26T15:20:19.094Z,32.54
2023-04-26T15:22:54.009Z,32.97
2023-04-26T15:25:26.414Z,32.61
2023-04-26T15:28:01.363Z,33.10
2023-04-26T15:30:33.101Z,33.44
2023-04-26T15:33:06.708Z,33.53
2023-04-26T15:35:39.079Z,34.10
2023-04-26T15:38:10.864Z,33.74
2023-04-26T15:40:50.613Z,33.35
2023-04-26T15:43:28.212Z,33.84
2023-04-26T15:45:59.782Z,33.96
2023-04-26T15:48:31.548Z,33.79
2023-04-26T15:51:05.390Z,34.34
2023-04-26T15:53:43.569Z,34.98
2023-04-26T15:56:17.901Z,33.98
2023-04-26T15:58:50.302Z,33.90
2023-04-26T16:01:25.202Z,33.80
2023-04-26T16:04:00.187Z,33.69
2023-04-26T16:06:33.309Z,33.61
2023-04-26T16:09:23.504Z,33.79
2023-04-26T16:11:58.932Z,34.25
2023-04-26T16:14:32.344Z,34.30
2023-04-26T16:17:06.105Z,34.03
2023-04-26T16:19:37.789Z,33.81
2023-04-26T16:22:09.495Z,33.81
2023-04-26T16:24:41.793Z,34.33
2023-04-26T16:27:13.697Z,33.98
2023-04-26T16:29:47.568Z,33.85
2023-04-26T16:32:19.564Z,34.44
2023-04-26T16:34:51.630Z,34.39
2023-04-26T16:37:23.326Z,34.49
2023-04-26T16:39:58.203Z,34.42
2023-04-26T16:42:30.228Z,34.47
2023-04-26T16:45:02.105Z,34.51
2023-04-26T16:47:34.299Z,34.53
2023-04-26T16:50:12.564Z,34.58
2023-04-26T16:52:47.357Z,34.61
2023-04-26T16:55:19.232Z,34.57
2023-04-26T16:57:50.951Z,34.75
2023-04-26T17:00:22.833Z,34.91
2023-04-26T17:02:55.663Z,35.02
2023-04-26T17:05:28.567Z,35.01
2023-04-26T17:08:00.445Z,35.20
2023-04-26T17:10:34.038Z,35.37
2023-04-26T17:13:07.203Z,34.61
2023-04-26T17:15:41.052Z,34.72
2023-04-26T17:18:12.942Z,35.02
2023-04-26T17:20:45.123Z,35.35
2023-04-26T17:23:16.846Z,35.28
2023-04-26T17:25:48.601Z,35.73
2023-04-26T17:28:20.342Z,35.04
2023-04-26T17:30:52.251Z,35.01
2023-04-26T17:33:24.869Z,35.18
2023-04-26T17:35:56.911Z,35.42
2023-04-26T17:38:28.732Z,35.13
2023-04-26T17:41:00.500Z,35.91
2023-04-26T17:43:36.120Z,35.84
2023-04-26T17:46:09.596Z,35.87
2023-04-26T17:48:41.405Z,35.44
2023-04-26T17:51:13.231Z,35.91
2023-04-26T17:53:45.921Z,35.88
2023-04-26T17:56:17.735Z,35.98
2023-04-26T17:58:49.414Z,36.28
2023-04-26T18:01:21.710Z,36.07
2023-04-26T18:03:53.695Z,36.04
2023-04-26T18:06:26.861Z,36.82
2023-04-26T18:08:58.649Z,36.85
2023-04-26T18:11:34.527Z,36.87
2023-04-26T18:14:06.296Z,36.65
2023-04-26T18:16:41.907Z,37.44
2023-04-26T18:19:13.671Z,37.10
2023-04-26T18:21:45.554Z,37.44
2023-04-26T18:24:17.235Z,37.28
2023-04-26T18:26:49.257Z,37.20
2023-04-26T18:29:21.099Z,37.45
2023-04-26T18:31:54.265Z,37.47
2023-04-26T18:34:28.112Z,37.51
2023-04-26T18:36:59.815Z,38.37
2023-04-26T18:39:31.706Z,37.75
2023-04-26T18:42:03.862Z,37.81
2023-04-26T18:44:35.598Z,37.74
2023-04-26T18:47:07.429Z,37.80
2023-04-26T18:49:39.493Z,38.57
2023-04-26T18:52:13.918Z,38.32
2023-04-26T18:54:45.599Z,38.08
2023-04-26T18:57:22.226Z,38.17
2023-04-26T18:59:56.535Z,38.37
2023-04-26T19:02:31.578Z,38.49
2023-04-26T19:05:07.437Z,38.15
2023-04-26T19:07:40.891Z,38.15
2023-04-26T19:10:16.503Z,38.60
2023-04-26T19:12:52.729Z,38.65
2023-04-26T19:15:24.268Z,38.73
2023-04-26T19:17:56.526Z,38.59
2023-04-26T19:20:29.652Z,38.52
2023-04-26T19:23:01.454Z,38.68
2023-04-26T19:25:33.883Z,38.58
2023-04-26T19:28:05.599Z,39.23
2023-04-26T19:30:38.122Z,38.99
2023-04-26T19:33:11.117Z,39.63
2023-04-26T19:35:42.819Z,39.62
2023-04-26T19:38:14.796Z,39.49
2023-04-26T19:40:46.943Z,39.46
2023-04-26T19:43:18.805Z,39.11
2023-04-26T19:45:50.641Z,39.82
2023-04-26T19:48:22.476Z,39.47
2023-04-26T19:50:57.240Z,40.14
2023-04-26T19:53:28.824Z,39.70
2023-04-26T19:56:01.933Z,39.36
2023-04-26T19:58:33.694Z,39.89
2023-04-26T20:01:05.850Z,40.64
2023-04-26T20:03:41.435Z,40.81
2023-04-26T20:06:14.093Z,40.71
2023-04-26T20:08:45.895Z,40.62
2023-04-26T20:11:18.510Z,40.41
2023-04-26T20:13:50.279Z,40.87
2023-04-26T20:16:22.025Z,40.60
2023-04-26T20:18:53.832Z,41.24
2023-04-26T20:21:28.976Z,40.62
2023-04-26T20:24:00.983Z,40.90
2023-04-26T20:26:35.539Z,41.26
2023-04-26T20:29:07.963Z,41.17
2023-04-26T20:31:41.242Z,40.80
2023-04-26T20:34:13.121Z,41.35
2023-04-26T20:36:44.874Z,41.47
2023-04-26T20:39:16.626Z,41.91
2023-04-26T20:41:52.486Z,41.15
2023-04-26T20:44:27.300Z,41.46
2023-04-26T20:46:59.008Z,41.88
2023-04-26T20:49:30.760Z,41.39
2023-04-26T20:52:02.509Z,41.63
2023-04-26T20:54:37.115Z,41.38
2023-04-26T20:57:08.800Z,41.52
2023-04-26T20:59:41.439Z,41.58
2023-04-26T21:02:16.086Z,41.84
2023-04-26T21:04:48.590Z,41.93
2023-04-26T21:07:20.419Z,42.22
2023-04-26T21:09:52.461Z,41.95
2023-04-26T21:12:25.444Z,41.69
2023-04-26T21:14:59.728Z,41.30
2023-04-26T21:17:31.497Z,41.43
2023-04-26T21:20:04.364Z,41.38
2023-04-26T21:22:36.335Z,41.88
2023-04-26T21:25:16.162Z,41.88
2023-04-26T21:27:48.016Z,42.44
2023-04-26T21:30:19.920Z,41.78
2023-04-26T21:32:53.718Z,41.78
2023-04-26T21:35:25.654Z,42.01
2023-04-26T21:37:57.414Z,42.15
2023-04-26T21:40:30.096Z,42.99
2023-04-26T21:43:05.168Z,43.18
2023-04-26T21:45:38.317Z,42.38
2023-04-26T21:48:10.432Z,43.08
2023-04-26T21:50:42.193Z,43.08
2023-04-26T21:53:13.968Z,42.61
2023-04-26T21:55:51.583Z,43.19
2023-04-26T21:58:23.445Z,43.47
2023-04-26T22:00:55.304Z,43.57
2023-04-26T22:03:30.052Z,43.63
2023-04-26T22:06:02.175Z,43.84
2023-04-26T22:08:37.172Z,44.50
2023-04-26T22:11:08.917Z,45.19
2023-04-26T22:13:40.619Z,45.16
2023-04-26T22:16:12.364Z,44.97
2023-04-26T22:18:44.642Z,45.69
2023-04-26T22:21:16.416Z,46.00
2023-04-26T22:23:48.119Z,45.78
2023-04-26T22:26:19.949Z,46.25
2023-04-26T22:28:51.597Z,46.45
2023-04-26T22:31:23.378Z,47.17
2023-04-26T22:33:55.261Z,47.21
2023-04-26T22:36:27.025Z,46.57
2023-04-26T22:39:01.930Z,46.97
2023-04-26T22:41:33.676Z,47.50
2023-04-26T22:44:05.797Z,47.20
2023-04-26T22:46:37.531Z,47.15
2023-04-26T22:49:09.426Z,48.07
2023-04-26T22:51:46.011Z,47.28
2023-04-26T22:54:28.533Z,46.94
2023-04-26T22:57:00.476Z,46.97
2023-04-26T22:59:34.359Z,46.43
2023-04-26T23:02:07.582Z,46.97
2023-04-26T23:04:39.662Z,46.75
2023-04-26T23:07:11.462Z,47.49
2023-04-26T23:09:43.238Z,48.10
2023-04-26T23:12:20.119Z,48.02
2023-04-26T23:14:58.813Z,47.88
2023-04-26T23:17:32.186Z,48.77
2023-04-26T23:20:13.330Z,48.74
2023-04-26T23:22:45.359Z,48.78
2023-04-26T23:25:19.713Z,48.18
2023-04-26T23:27:51.959Z,48.75
2023-04-26T23:30:23.689Z,49.30
2023-04-26T23:32:55.704Z,50.16
2023-04-26T23:35:27.421Z,49.44
2023-04-26T23:37:59.341Z,50.15
2023-04-26T23:40:33.786Z,49.21
2023-04-26T23:43:06.295Z,49.72
2023-04-26T23:45:37.974Z,49.86
2023-04-26T23:48:10.089Z,50.85
2023-04-26T23:50:42.162Z,50.60
2023-04-26T23:53:14.975Z,51.17
2023-04-26T23:55:47.326Z,50.47
2023-04-26T23:58:19.107Z,51.00
